Time;durP1;ratioP1;P1;durP2;ratioP2;P2;SDS_P1;SDS_P2;PMS_P1;PMS_P2;Temp;Humidity;BMP_temperature;BMP_pressure;BME280_temperature;BME280_humidity;BME280_pressure;Samples;Min_cycle;Max_cycle;Signal;HPM_P1;HPM_P2
2021/09/05 00:01:44;;;;;;;32.53;26.55;;;;;;;14.34;100.00;101858.88;4901355;30;20032;-68
2021/09/05 00:04:16;;;;;;;29.70;26.25;;;;;;;14.33;100.00;101851.94;4901077;30;20116;-68
2021/09/05 00:06:47;;;;;;;31.77;26.95;;;;;;;14.32;100.00;101855.53;4907209;30;20108;-68
2021/09/05 00:09:18;;;;;;;29.20;24.58;;;;;;;14.24;100.00;101857.97;4905852;30;20099;-68
2021/09/05 00:11:50;;;;;;;29.15;25.23;;;;;;;14.18;100.00;101861.13;4909359;30;20033;-68
2021/09/05 00:14:21;;;;;;;28.00;24.80;;;;;;;14.12;100.00;101864.28;4905864;30;20484;-68
2021/09/05 00:16:52;;;;;;;31.13;26.55;;;;;;;14.09;100.00;101861.88;4908491;30;20370;-68
2021/09/05 00:19:24;;;;;;;31.20;26.38;;;;;;;14.08;100.00;101860.22;4897397;30;20033;-68
2021/09/05 00:21:55;;;;;;;31.20;26.45;;;;;;;14.03;100.00;101859.78;4901513;30;20029;-68
2021/09/05 00:24:26;;;;;;;29.42;25.00;;;;;;;14.02;100.00;101866.03;4909991;30;20037;-69
2021/09/05 00:26:57;;;;;;;31.35;27.17;;;;;;;13.94;100.00;101863.16;4904182;30;20033;-68
2021/09/05 00:29:29;;;;;;;32.88;27.83;;;;;;;13.94;100.00;101857.88;4900104;30;20401;-69
2021/09/05 00:32:00;;;;;;;34.35;27.33;;;;;;;13.86;100.00;101858.53;4897023;30;20029;-68
2021/09/05 00:34:31;;;;;;;33.80;27.95;;;;;;;13.80;100.00;101857.25;4906740;30;20065;-68
2021/09/05 00:37:03;;;;;;;32.22;25.52;;;;;;;13.75;100.00;101862.06;4900741;30;20048;-68
2021/09/05 00:39:34;;;;;;;31.70;25.95;;;;;;;13.69;100.00;101853.81;4902318;30;20374;-68
2021/09/05 00:42:05;;;;;;;32.00;27.00;;;;;;;13.69;100.00;101854.66;4902709;30;20056;-69
2021/09/05 00:44:37;;;;;;;29.77;25.48;;;;;;;13.65;100.00;101847.97;4907974;30;20554;-68
2021/09/05 00:47:08;;;;;;;29.92;25.45;;;;;;;13.63;100.00;101847.25;4905276;30;20113;-69
2021/09/05 00:49:39;;;;;;;30.85;25.50;;;;;;;13.58;100.00;101844.16;4901843;30;20059;-68
2021/09/05 00:52:12;;;;;;;31.80;25.90;;;;;;;13.64;100.00;101851.56;4909852;30;20027;-68
2021/09/05 00:54:43;;;;;;;33.28;27.23;;;;;;;13.64;100.00;101846.31;4903339;30;20025;-68
2021/09/05 00:57:16;;;;;;;29.38;25.58;;;;;;;13.76;100.00;101847.09;4903061;30;20085;-68
2021/09/05 00:59:48;;;;;;;29.23;26.05;;;;;;;13.69;100.00;101849.38;4905782;30;20046;-68
2021/09/05 01:02:20;;;;;;;30.40;26.38;;;;;;;13.78;100.00;101853.88;4897002;30;20545;-68
2021/09/05 01:04:51;;;;;;;29.70;26.27;;;;;;;13.75;100.00;101848.91;4904507;30;20171;-68
2021/09/05 01:07:23;;;;;;;33.17;27.27;;;;;;;13.73;100.00;101836.81;4897535;30;20029;-68
2021/09/05 01:09:55;;;;;;;33.03;25.35;;;;;;;13.71;100.00;101844.81;4905848;30;20033;-68
2021/09/05 01:12:27;;;;;;;34.30;27.15;;;;;;;13.72;100.00;101837.78;4905412;30;20041;-68
2021/09/05 01:14:58;;;;;;;29.88;25.38;;;;;;;13.72;100.00;101843.03;4902546;30;20036;-68
2021/09/05 01:17:36;;;;;;;28.65;25.58;;;;;;;13.72;100.00;101848.31;4903294;30;20481;-68
2021/09/05 01:20:09;;;;;;;30.77;25.88;;;;;;;13.66;100.00;101840.91;4901400;30;20503;-68
2021/09/05 01:22:40;;;;;;;31.73;25.63;;;;;;;13.66;100.00;101839.09;4901356;30;20029;-68
2021/09/05 01:25:11;;;;;;;30.90;25.88;;;;;;;13.68;100.00;101834.56;4897772;30;20079;-68
2021/09/05 01:27:43;;;;;;;33.70;25.95;;;;;;;13.69;100.00;101828.31;4899798;30;20068;-68
2021/09/05 01:30:15;;;;;;;31.92;25.98;;;;;;;13.68;100.00;101831.09;4892556;30;20489;-68
2021/09/05 01:32:46;;;;;;;31.42;26.75;;;;;;;13.65;100.00;101834.81;4902870;30;20033;-68
2021/09/05 01:35:17;;;;;;;31.73;25.52;;;;;;;13.68;100.00;101844.25;4906463;30;20026;-68
2021/09/05 01:37:49;;;;;;;30.48;26.17;;;;;;;13.65;100.00;101834.81;4901597;30;20271;-68
2021/09/05 01:40:20;;;;;;;31.33;26.73;;;;;;;13.59;100.00;101845.81;4897476;30;20517;-68
2021/09/05 01:42:51;;;;;;;33.53;26.15;;;;;;;13.63;100.00;101848.09;4901452;30;20468;-68
2021/09/05 01:45:23;;;;;;;29.05;25.67;;;;;;;13.58;100.00;101842.38;4904590;30;20036;-68
2021/09/05 01:47:54;;;;;;;34.65;27.00;;;;;;;13.53;100.00;101836.66;4895739;30;20037;-68
2021/09/05 01:50:25;;;;;;;29.83;24.67;;;;;;;13.60;100.00;101853.63;4902867;30;20037;-68
2021/09/05 01:52:57;;;;;;;31.52;25.83;;;;;;;13.49;100.00;101853.66;4909601;30;20116;-68
2021/09/05 01:55:28;;;;;;;31.33;26.17;;;;;;;13.54;100.00;101848.00;4906469;30;20337;-68
2021/09/05 01:57:59;;;;;;;32.42;26.00;;;;;;;13.55;100.00;101853.13;4897114;30;20034;-68
2021/09/05 02:00:30;;;;;;;30.15;25.30;;;;;;;13.50;100.00;101855.31;4898792;30;20049;-68
2021/09/05 02:03:02;;;;;;;31.73;25.90;;;;;;;13.48;100.00;101851.97;4901120;30;20026;-68
2021/09/05 02:05:33;;;;;;;29.92;24.75;;;;;;;13.47;100.00;101852.94;4900696;30;20033;-68
2021/09/05 02:08:05;;;;;;;29.42;24.55;;;;;;;13.50;100.00;101854.50;4896103;30;20366;-68
2021/09/05 02:10:36;;;;;;;29.58;25.33;;;;;;;13.37;100.00;101846.72;4906560;30;20396;-68
2021/09/05 02:13:07;;;;;;;33.03;25.27;;;;;;;13.43;100.00;101866.47;4898925;30;20040;-68
2021/09/05 02:15:39;;;;;;;32.72;25.30;;;;;;;13.42;100.00;101867.44;4899424;30;20543;-69
2021/09/05 02:18:10;;;;;;;26.90;23.58;;;;;;;13.41;100.00;101871.88;4905913;30;20037;-68
2021/09/05 02:20:42;;;;;;;28.80;24.77;;;;;;;13.37;100.00;101863.38;4907972;30;20550;-68
2021/09/05 02:23:13;;;;;;;31.40;24.98;;;;;;;13.34;100.00;101866.25;4905250;30;20068;-68
2021/09/05 02:25:44;;;;;;;31.40;23.70;;;;;;;13.34;100.00;101871.53;4901850;30;20037;-68
2021/09/05 02:28:16;;;;;;;29.35;25.48;;;;;;;13.33;100.00;101869.00;4906614;30;20367;-68
2021/09/05 02:30:47;;;;;;;30.02;24.67;;;;;;;13.31;100.00;101860.41;4911130;30;20229;-68
2021/09/05 02:33:18;;;;;;;27.38;22.63;;;;;;;13.33;100.00;101861.09;4902691;30;20029;-68
2021/09/05 02:35:50;;;;;;;26.38;23.52;;;;;;;13.32;100.00;101862.91;4906296;30;20060;-68
2021/09/05 02:38:21;;;;;;;30.33;24.65;;;;;;;13.28;100.00;101864.09;4898863;30;20030;-68
2021/09/05 02:40:53;;;;;;;29.02;22.80;;;;;;;13.28;100.00;101866.72;4898375;30;20033;-68
2021/09/05 02:43:24;;;;;;;28.80;23.65;;;;;;;13.30;100.00;101864.84;4896900;30;20061;-68
2021/09/05 02:45:55;;;;;;;33.40;24.10;;;;;;;13.22;100.00;101864.59;4907974;30;20029;-68
2021/09/05 02:48:27;;;;;;;30.10;24.38;;;;;;;13.22;100.00;101861.94;4903581;30;20069;-68
2021/09/05 02:50:58;;;;;;;29.60;23.50;;;;;;;13.19;100.00;101864.00;4901538;30;20243;-68
2021/09/05 02:53:29;;;;;;;26.67;22.27;;;;;;;13.15;100.00;101872.13;4911043;30;20397;-68
2021/09/05 02:56:00;;;;;;;28.80;24.48;;;;;;;13.11;100.00;101854.06;4908332;30;20029;-68
2021/09/05 02:58:32;;;;;;;28.67;24.27;;;;;;;13.08;100.00;101856.94;4901502;30;20033;-68
2021/09/05 03:01:03;;;;;;;28.27;23.73;;;;;;;13.10;100.00;101861.09;4901049;30;20037;-68
2021/09/05 03:03:34;;;;;;;27.85;23.30;;;;;;;13.06;100.00;101861.47;4911386;30;20029;-68
2021/09/05 03:06:05;;;;;;;28.83;22.80;;;;;;;13.01;100.00;101864.47;4899514;30;20033;-68
2021/09/05 03:08:37;;;;;;;30.75;24.63;;;;;;;12.98;100.00;101862.06;4905824;30;20037;-68
2021/09/05 03:11:08;;;;;;;29.58;23.30;;;;;;;12.99;100.00;101865.53;4906025;30;20037;-68
2021/09/05 03:13:40;;;;;;;26.70;23.55;;;;;;;12.99;100.00;101869.00;4903581;30;20378;-68
2021/09/05 03:16:11;;;;;;;28.45;23.27;;;;;;;12.97;100.00;101872.72;4898468;30;20112;-68
2021/09/05 03:18:43;;;;;;;29.65;23.77;;;;;;;12.91;100.00;101872.25;4907260;30;20056;-68
2021/09/05 03:21:14;;;;;;;27.90;23.90;;;;;;;12.85;100.00;101867.47;4905326;30;20063;-68
2021/09/05 03:23:45;;;;;;;28.65;24.35;;;;;;;12.81;100.00;101866.03;4904893;30;20037;-68
2021/09/05 03:26:17;;;;;;;32.15;24.50;;;;;;;12.81;100.00;101878.38;4896216;30;20025;-68
2021/09/05 03:28:48;;;;;;;28.42;23.52;;;;;;;12.76;100.00;101864.72;4902864;30;20025;-68
2021/09/05 03:31:19;;;;;;;29.67;23.67;;;;;;;12.77;100.00;101867.25;4906817;30;20116;-68
2021/09/05 03:33:50;;;;;;;28.25;23.20;;;;;;;12.71;100.00;101865.06;4898015;30;20052;-68
2021/09/05 03:36:22;;;;;;;28.10;22.60;;;;;;;12.71;100.00;101872.13;4900945;30;20033;-68
2021/09/05 03:38:53;;;;;;;28.83;23.90;;;;;;;12.64;100.00;101877.03;4906084;30;20100;-68
2021/09/05 03:41:24;;;;;;;30.27;23.67;;;;;;;12.64;100.00;101874.38;4910422;30;20037;-68
2021/09/05 03:43:56;;;;;;;28.52;23.27;;;;;;;12.66;100.00;101870.69;4898184;30;20044;-68
2021/09/05 03:46:27;;;;;;;28.85;23.42;;;;;;;12.57;100.00;101881.06;4898905;30;20044;-68
2021/09/05 03:48:58;;;;;;;27.42;22.73;;;;;;;12.59;100.00;101876.53;4908001;30;20079;-68
2021/09/05 03:51:29;;;;;;;26.15;21.90;;;;;;;12.45;100.00;101879.38;4909134;30;20548;-68
2021/09/05 03:54:01;;;;;;;29.40;23.15;;;;;;;12.46;100.00;101884.50;4896952;30;20033;-68
2021/09/05 03:56:32;;;;;;;27.48;22.67;;;;;;;12.41;100.00;101884.03;4903627;30;20035;-68
2021/09/05 03:59:03;;;;;;;28.80;23.20;;;;;;;12.32;100.00;101875.06;4907135;30;20107;-68
2021/09/05 04:01:35;;;;;;;25.55;22.15;;;;;;;12.23;100.00;101881.00;4905448;30;20032;-68
2021/09/05 04:04:06;;;;;;;26.60;21.45;;;;;;;12.26;100.00;101882.56;4909560;30;20041;-68
2021/09/05 04:06:38;;;;;;;26.30;22.13;;;;;;;12.21;100.00;101882.09;4907745;30;20116;-68
2021/09/05 04:09:17;;;;;;;29.42;22.75;;;;;;;12.20;100.00;101880.38;4901481;30;20041;-68
2021/09/05 04:11:48;;;;;;;30.35;21.98;;;;;;;12.08;100.00;101872.47;4905070;30;20064;-68
2021/09/05 04:14:20;;;;;;;27.00;22.25;;;;;;;12.03;100.00;101881.66;4899591;30;20034;-68
2021/09/05 04:16:52;;;;;;;26.15;21.83;;;;;;;12.00;100.00;101874.00;4908206;30;20477;-68
2021/09/05 04:19:23;;;;;;;25.30;21.88;;;;;;;11.92;100.00;101872.78;4905913;30;20036;-68
2021/09/05 04:21:54;;;;;;;27.52;22.95;;;;;;;11.93;100.00;101871.84;4909426;30;20025;-68
2021/09/05 04:24:25;;;;;;;28.25;22.55;;;;;;;11.89;100.00;101873.03;4910199;30;20037;-68
2021/09/05 04:26:57;;;;;;;25.85;22.60;;;;;;;11.89;100.00;101874.81;4903207;30;20074;-68
2021/09/05 04:29:28;;;;;;;24.65;21.55;;;;;;;11.84;100.00;101880.41;4903435;30;20041;-68
2021/09/05 04:31:59;;;;;;;27.00;21.73;;;;;;;11.80;100.00;101886.78;4905977;30;20030;-68
2021/09/05 04:34:30;;;;;;;26.20;21.25;;;;;;;11.72;100.00;101881.28;4906267;30;20071;-68
2021/09/05 04:37:02;;;;;;;25.27;20.90;;;;;;;11.72;100.00;101891.78;4899574;30;20098;-68
2021/09/05 04:39:33;;;;;;;27.52;21.90;;;;;;;11.68;100.00;101888.53;4901696;30;20045;-68
2021/09/05 04:42:04;;;;;;;29.08;21.38;;;;;;;11.67;100.00;101886.03;4902551;30;20297;-68
2021/09/05 04:44:37;;;;;;;28.90;22.67;;;;;;;11.55;100.00;101882.47;4907354;30;20044;-68
2021/09/05 04:47:08;;;;;;;27.85;21.40;;;;;;;11.70;100.00;101885.78;4902988;30;20069;-68
2021/09/05 04:49:40;;;;;;;26.98;21.08;;;;;;;11.51;100.00;101883.66;4902653;30;20069;-68
2021/09/05 04:52:11;;;;;;;25.33;20.75;;;;;;;11.52;100.00;101889.78;4910116;30;20029;-68
2021/09/05 04:54:42;;;;;;;26.33;21.23;;;;;;;11.46;100.00;101893.66;4901990;30;20136;-68
2021/09/05 04:57:13;;;;;;;25.02;21.50;;;;;;;11.46;100.00;101885.78;4903230;30;20037;-68
2021/09/05 04:59:45;;;;;;;28.95;21.13;;;;;;;11.47;100.00;101894.50;4905938;30;20040;-68
2021/09/05 05:02:16;;;;;;;27.88;21.85;;;;;;;11.47;100.00;101897.13;4908238;30;20170;-68
2021/09/05 05:04:47;;;;;;;27.45;21.83;;;;;;;11.49;100.00;101903.09;4898501;30;20116;-68
2021/09/05 05:07:19;;;;;;;27.63;21.90;;;;;;;11.50;100.00;101899.53;4909942;30;20087;-68
2021/09/05 05:09:53;;;;;;;33.58;24.73;;;;;;;11.52;100.00;101889.78;4904656;30;20034;-68
2021/09/05 05:12:25;;;;;;;31.33;23.17;;;;;;;11.53;100.00;101894.88;4902836;30;20318;-68
2021/09/05 05:14:56;;;;;;;31.52;23.70;;;;;;;11.57;100.00;101892.88;4901588;30;20387;-68
2021/09/05 05:17:27;;;;;;;30.85;23.33;;;;;;;11.65;100.00;101893.16;4902623;30;20503;-68
2021/09/05 05:19:58;;;;;;;34.38;24.90;;;;;;;11.61;100.00;101904.84;4906446;30;20493;-68
2021/09/05 05:22:30;;;;;;;32.15;22.98;;;;;;;11.60;100.00;101901.38;4898492;30;20471;-68
2021/09/05 05:25:01;;;;;;;32.00;22.92;;;;;;;11.66;100.00;101907.97;4900078;30;20040;-68
2021/09/05 05:27:32;;;;;;;32.30;23.80;;;;;;;11.63;100.00;101913.41;4908681;30;20048;-68
2021/09/05 05:30:04;;;;;;;30.95;22.95;;;;;;;11.75;100.00;101909.09;4904582;30;20064;-68
2021/09/05 05:32:36;;;;;;;28.65;23.30;;;;;;;11.70;100.00;101914.66;4899968;30;20029;-68
2021/09/05 05:35:07;;;;;;;32.92;23.73;;;;;;;11.74;100.00;101918.72;4907017;30;20033;-68
2021/09/05 05:37:39;;;;;;;30.20;22.15;;;;;;;11.71;100.00;101913.72;4905338;30;20037;-68
2021/09/05 05:40:10;;;;;;;33.72;23.40;;;;;;;11.73;100.00;101914.44;4904161;30;20510;-68
2021/09/05 05:42:42;;;;;;;30.40;23.33;;;;;;;11.74;100.00;101910.84;4900377;30;20748;-68
2021/09/05 05:45:13;;;;;;;33.63;23.92;;;;;;;11.76;100.00;101910.75;4907786;30;20488;-68
2021/09/05 05:47:45;;;;;;;32.20;23.48;;;;;;;11.77;100.00;101918.50;4897225;30;20041;-68
2021/09/05 05:50:16;;;;;;;31.00;22.25;;;;;;;11.72;100.00;101917.19;4898049;30;20457;-68
2021/09/05 05:52:47;;;;;;;28.80;21.65;;;;;;;11.80;100.00;101927.97;4910959;30;20048;-68
2021/09/05 05:55:22;;;;;;;31.50;22.38;;;;;;;11.90;100.00;101927.22;4909989;30;20091;-68
2021/09/05 05:57:53;;;;;;;28.52;22.50;;;;;;;11.83;100.00;101938.25;4907740;30;20044;-68
2021/09/05 06:00:27;;;;;;;28.83;22.92;;;;;;;11.80;100.00;101930.59;4896172;30;20037;-68
2021/09/05 06:02:58;;;;;;;31.48;22.27;;;;;;;11.85;100.00;101931.94;4905790;30;20095;-68
2021/09/05 06:05:29;;;;;;;29.38;22.45;;;;;;;11.92;100.00;101938.44;4907797;30;20032;-68
2021/09/05 06:08:02;;;;;;;32.25;23.55;;;;;;;11.89;100.00;101933.44;4907154;30;20033;-68
2021/09/05 06:10:33;;;;;;;32.20;21.73;;;;;;;11.96;100.00;101938.22;4903002;30;20064;-68
2021/09/05 06:13:04;;;;;;;30.23;21.17;;;;;;;11.97;100.00;101929.38;4909000;30;20105;-68
2021/09/05 06:15:36;;;;;;;28.33;22.15;;;;;;;12.08;100.00;101937.31;4906038;30;20382;-68
2021/09/05 06:18:07;;;;;;;29.15;22.00;;;;;;;12.06;100.00;101928.72;4906219;30;20417;-68
2021/09/05 06:20:38;;;;;;;26.65;21.45;;;;;;;12.12;100.00;101944.00;4909155;30;20033;-68
2021/09/05 06:23:09;;;;;;;31.00;23.30;;;;;;;12.12;100.00;101938.75;4908158;30;20459;-68
2021/09/05 06:25:41;;;;;;;27.90;21.85;;;;;;;12.20;100.00;101938.19;4900199;30;20035;-68
2021/09/05 06:28:12;;;;;;;44.42;24.00;;;;;;;12.23;100.00;101945.84;4904916;30;20029;-68
2021/09/05 06:30:44;;;;;;;28.88;23.60;;;;;;;12.27;100.00;101945.50;4911615;30;20033;-68
2021/09/05 06:33:15;;;;;;;32.78;23.20;;;;;;;12.32;100.00;101945.19;4901672;30;20124;-68
2021/09/05 06:35:46;;;;;;;31.15;23.30;;;;;;;12.41;100.00;101949.75;4908250;30;20148;-68
2021/09/05 06:38:18;;;;;;;34.05;24.27;;;;;;;12.41;100.00;101941.84;4909748;30;20070;-68
2021/09/05 06:40:49;;;;;;;30.33;22.77;;;;;;;12.54;100.00;101955.75;4903936;30;20037;-68
2021/09/05 06:43:20;;;;;;;33.20;23.77;;;;;;;12.52;100.00;101941.88;4897237;30;20049;-68
2021/09/05 06:45:51;;;;;;;32.90;23.48;;;;;;;12.62;100.00;101948.13;4902623;30;20037;-68
2021/09/05 06:48:23;;;;;;;30.67;22.48;;;;;;;12.69;100.00;101951.16;4906824;30;20036;-68
2021/09/05 06:50:54;;;;;;;35.08;23.27;;;;;;;12.75;100.00;101955.91;4902755;30;20044;-68
2021/09/05 06:53:25;;;;;;;27.83;22.10;;;;;;;12.81;100.00;101957.25;4911928;30;20111;-68
2021/09/05 06:55:56;;;;;;;31.50;23.58;;;;;;;12.84;100.00;101959.63;4911161;30;20033;-68
2021/09/05 06:58:28;;;;;;;30.48;24.02;;;;;;;12.89;100.00;101963.59;4902130;30;20033;-68
2021/09/05 07:00:59;;;;;;;33.35;22.83;;;;;;;12.95;100.00;101967.53;4900028;30;20150;-68
2021/09/05 07:03:30;;;;;;;32.47;24.52;;;;;;;13.04;100.00;101971.25;4904805;30;20048;-68
2021/09/05 07:06:02;;;;;;;29.83;22.83;;;;;;;13.06;100.00;101971.97;4907461;30;20226;-68
2021/09/05 07:08:33;;;;;;;32.47;24.65;;;;;;;13.15;100.00;101981.78;4898937;30;20142;-68
2021/09/05 07:11:04;;;;;;;30.25;22.90;;;;;;;13.18;100.00;101981.53;4903819;30;20025;-68
2021/09/05 07:13:36;;;;;;;30.92;23.45;;;;;;;13.23;100.00;101971.53;4907236;30;20033;-68
2021/09/05 07:16:08;;;;;;;34.28;24.15;;;;;;;13.30;100.00;101977.16;4903492;30;20037;-68
2021/09/05 07:18:40;;;;;;;32.17;23.13;;;;;;;13.37;100.00;101979.19;4903622;30;20501;-68
2021/09/05 07:21:11;;;;;;;29.97;22.83;;;;;;;13.47;100.00;101981.09;4909104;30;20037;-68
2021/09/05 07:23:43;;;;;;;30.92;23.67;;;;;;;13.55;100.00;101992.69;4908006;30;20051;-68
2021/09/05 07:26:14;;;;;;;29.25;22.20;;;;;;;13.64;100.00;101993.78;4906185;30;20034;-68
2021/09/05 07:28:45;;;;;;;30.20;22.02;;;;;;;13.68;100.00;101995.19;4906400;30;20069;-68
2021/09/05 07:31:17;;;;;;;30.70;22.23;;;;;;;13.74;100.00;101999.97;4907761;30;20021;-68
2021/09/05 07:33:48;;;;;;;29.92;22.60;;;;;;;13.79;100.00;101992.56;4901834;30;20103;-68
2021/09/05 07:36:19;;;;;;;30.33;22.95;;;;;;;13.89;100.00;102003.16;4903583;30;20022;-68
2021/09/05 07:38:51;;;;;;;30.33;23.00;;;;;;;13.98;100.00;102001.59;4908954;30;20029;-68
2021/09/05 07:41:22;;;;;;;31.02;23.05;;;;;;;14.05;100.00;101997.50;4909153;30;20037;-68
2021/09/05 07:43:54;;;;;;;28.83;21.85;;;;;;;14.16;100.00;102001.91;4900932;30;20040;-68
2021/09/05 07:46:25;;;;;;;31.58;22.67;;;;;;;14.20;100.00;101992.78;4906646;30;20099;-68
2021/09/05 07:48:56;;;;;;;30.67;22.05;;;;;;;14.31;100.00;102008.53;4908897;30;20417;-68
2021/09/05 07:51:28;;;;;;;26.98;21.45;;;;;;;14.34;100.00;102010.94;4905711;30;20468;-68
2021/09/05 07:53:59;;;;;;;28.83;21.10;;;;;;;14.42;100.00;102011.13;4905242;30;20120;-68
2021/09/05 07:56:30;;;;;;;28.40;22.27;;;;;;;14.55;100.00;102009.19;4910013;30;20044;-68
2021/09/05 07:59:02;;;;;;;31.55;21.80;;;;;;;14.61;100.00;102010.47;4899615;30;20028;-68
2021/09/05 08:01:33;;;;;;;26.73;22.38;;;;;;;14.73;100.00;102011.25;4898580;30;20094;-68
2021/09/05 08:04:04;;;;;;;28.48;21.83;;;;;;;14.82;100.00;102011.31;4894654;30;20109;-68
2021/09/05 08:06:35;;;;;;;28.75;23.38;;;;;;;14.95;100.00;102010.28;4896910;30;20408;-68
2021/09/05 08:09:07;;;;;;;31.33;21.92;;;;;;;15.00;100.00;102013.34;4893821;30;20039;-68
2021/09/05 08:11:38;;;;;;;28.23;22.05;;;;;;;15.05;100.00;102012.03;4899527;30;20061;-68
2021/09/05 08:14:09;;;;;;;30.02;22.48;;;;;;;15.16;100.00;102010.28;4899419;30;20489;-68
2021/09/05 08:16:40;;;;;;;28.63;22.55;;;;;;;15.23;100.00;102016.69;4894543;30;20398;-68
2021/09/05 08:19:12;;;;;;;26.25;20.90;;;;;;;15.39;100.00;102021.50;4892516;30;20127;-68
2021/09/05 08:21:43;;;;;;;29.10;22.45;;;;;;;15.48;100.00;102025.97;4893990;30;20103;-68
2021/09/05 08:24:14;;;;;;;25.65;20.38;;;;;;;15.63;100.00;102018.50;4894787;30;20113;-68
2021/09/05 08:26:46;;;;;;;28.63;21.80;;;;;;;15.75;100.00;102022.75;4894803;30;20025;-68
2021/09/05 08:29:17;;;;;;;27.55;21.25;;;;;;;15.86;100.00;102027.09;4899372;30;20037;-68
2021/09/05 08:31:49;;;;;;;29.52;22.20;;;;;;;15.95;100.00;102032.41;4899527;30;20033;-68
2021/09/05 08:34:20;;;;;;;28.75;20.42;;;;;;;16.03;100.00;102029.06;4895239;30;20116;-68
2021/09/05 08:36:51;;;;;;;28.48;21.83;;;;;;;16.14;100.00;102023.66;4902968;30;20034;-68
2021/09/05 08:39:26;;;;;;;28.40;20.33;;;;;;;16.29;100.00;102027.56;4909232;30;20040;-68
2021/09/05 08:41:58;;;;;;;26.17;20.88;;;;;;;16.40;100.00;102029.25;4908561;30;20041;-68
2021/09/05 08:44:30;;;;;;;28.35;20.65;;;;;;;16.56;100.00;102030.50;4903867;30;20061;-68
2021/09/05 08:47:02;;;;;;;23.63;20.35;;;;;;;16.70;100.00;102030.88;4908761;30;20075;-68
2021/09/05 08:49:35;;;;;;;27.50;20.48;;;;;;;16.74;100.00;102036.75;4905352;30;20071;-68
2021/09/05 08:52:06;;;;;;;25.17;20.80;;;;;;;16.88;100.00;102038.13;4896452;30;20464;-68
2021/09/05 08:54:38;;;;;;;26.77;20.55;;;;;;;16.99;100.00;102033.50;4898503;30;20040;-69
2021/09/05 08:57:09;;;;;;;30.48;21.67;;;;;;;16.97;100.00;102029.31;4909607;30;20366;-69
2021/09/05 08:59:40;;;;;;;25.02;20.23;;;;;;;17.14;100.00;102033.06;4903913;30;20044;-67
2021/09/05 09:02:12;;;;;;;29.15;21.45;;;;;;;17.30;100.00;102041.22;4902951;30;20112;-69
2021/09/05 09:04:43;;;;;;;25.83;21.05;;;;;;;17.43;100.00;102038.28;4904478;30;20033;-69
2021/09/05 09:07:16;;;;;;;25.02;19.73;;;;;;;17.60;100.00;102039.28;4910014;30;20025;-69
2021/09/05 09:09:59;;;;;;;25.33;20.00;;;;;;;17.76;100.00;102042.16;4901725;30;20160;-69
2021/09/05 09:12:48;;;;;;;25.02;20.60;;;;;;;17.99;100.00;102040.78;4909244;30;20043;-69
2021/09/05 09:15:30;;;;;;;24.23;18.73;;;;;;;18.04;100.00;102042.16;4905320;30;20098;-68
2021/09/05 09:18:04;;;;;;;27.10;19.50;;;;;;;18.26;100.00;102038.22;4900815;30;20076;-69
2021/09/05 09:20:43;;;;;;;25.73;20.02;;;;;;;18.35;100.00;102042.63;4898470;30;20476;-69
2021/09/05 09:23:22;;;;;;;25.20;18.35;;;;;;;18.52;100.00;102036.47;4903888;30;20033;-70
2021/09/05 09:26:04;;;;;;;25.13;19.95;;;;;;;18.68;100.00;102043.75;4907549;30;20552;-69
2021/09/05 09:28:37;;;;;;;24.02;18.70;;;;;;;18.74;100.00;102039.66;4897146;30;20493;-68
2021/09/05 09:31:11;;;;;;;26.73;18.73;;;;;;;18.95;100.00;102042.81;4905355;30;20060;-69
2021/09/05 09:33:47;;;;;;;24.98;20.27;;;;;;;19.09;100.00;102042.25;4904768;30;20037;-68
2021/09/05 09:36:20;;;;;;;23.40;18.80;;;;;;;19.16;100.00;102043.25;4906121;30;20443;-68
2021/09/05 09:38:59;;;;;;;26.52;19.15;;;;;;;19.26;100.00;102040.50;4909805;30;20439;-69
2021/09/05 09:41:33;;;;;;;24.50;18.85;;;;;;;19.43;100.00;102034.28;4910584;30;20037;-68
2021/09/05 09:44:08;;;;;;;23.38;18.40;;;;;;;19.55;100.00;102040.16;4900972;30;20060;-69
2021/09/05 09:46:42;;;;;;;24.77;18.60;;;;;;;19.67;100.00;102038.06;4910721;30;20032;-69
2021/09/05 09:49:14;;;;;;;22.27;18.20;;;;;;;19.71;100.00;102042.06;4909079;30;20053;-69
2021/09/05 09:51:45;;;;;;;23.35;18.33;;;;;;;19.80;100.00;102040.25;4901830;30;20017;-69
2021/09/05 09:54:16;;;;;;;25.77;20.20;;;;;;;19.86;100.00;102036.97;4908625;30;20260;-70
2021/09/05 09:56:48;;;;;;;24.70;19.83;;;;;;;20.03;100.00;102037.81;4905130;30;20102;-69
2021/09/05 09:59:20;;;;;;;23.83;19.17;;;;;;;20.13;100.00;102028.69;4906901;30;20044;-69
2021/09/05 10:01:51;;;;;;;23.67;18.33;;;;;;;20.21;100.00;102035.84;4904732;30;20472;-70
2021/09/05 10:04:22;;;;;;;23.17;19.80;;;;;;;20.44;100.00;102038.69;4912006;30;20040;-70
2021/09/05 10:06:54;;;;;;;23.23;19.03;;;;;;;20.51;100.00;102042.41;4908874;30;20030;-69
2021/09/05 10:09:26;;;;;;;23.37;19.03;;;;;;;20.50;100.00;102035.41;4905870;30;20038;-68
2021/09/05 10:11:57;;;;;;;23.30;19.57;;;;;;;20.44;100.00;102038.69;4907896;30;20537;-69
2021/09/05 10:14:29;;;;;;;25.87;19.17;;;;;;;20.51;100.00;102036.25;4903590;30;20053;-69
2021/09/05 10:17:00;;;;;;;24.17;20.10;;;;;;;20.53;100.00;102045.75;4902723;30;20044;-70
2021/09/05 10:19:35;;;;;;;26.40;19.87;;;;;;;20.78;100.00;102043.88;4903598;30;20432;-69
2021/09/05 10:22:07;;;;;;;23.75;18.67;;;;;;;20.78;100.00;102049.22;4908658;30;20027;-70
2021/09/05 10:24:43;;;;;;;23.53;19.07;;;;;;;20.96;100.00;102041.03;4909629;30;20045;-68
2021/09/05 10:27:15;;;;;;;22.77;19.00;;;;;;;21.00;100.00;102033.53;4899173;30;20040;-68
2021/09/05 10:30:08;;;;;;;20.88;18.23;;;;;;;21.31;100.00;102038.94;4900601;30;20526;-69
2021/09/05 10:33:00;;;;;;;22.08;17.65;;;;;;;21.33;100.00;102029.81;4906940;30;20080;-70
2021/09/05 10:35:47;;;;;;;23.75;18.38;;;;;;;21.51;100.00;102032.22;4906812;30;20749;-70
2021/09/05 10:38:25;;;;;;;24.60;19.55;;;;;;;21.24;100.00;102029.97;4899521;30;20033;-69
2021/09/05 10:40:59;;;;;;;24.10;18.60;;;;;;;21.53;100.00;102026.72;4910621;30;20107;-70
2021/09/05 10:43:48;;;;;;;20.63;18.20;;;;;;;21.64;100.00;102022.84;4903533;30;20084;-70
2021/09/05 10:46:21;;;;;;;23.20;18.48;;;;;;;21.48;100.00;102029.94;4901871;30;20044;-69
2021/09/05 10:48:58;;;;;;;22.20;17.98;;;;;;;21.64;100.00;102028.19;4899468;30;20029;-69
2021/09/05 10:51:29;;;;;;;21.65;17.17;;;;;;;21.79;100.00;102023.78;4911362;30;20045;-69
2021/09/05 10:54:09;;;;;;;23.27;19.27;;;;;;;21.84;100.00;102027.56;4908204;30;20094;-70
2021/09/05 10:56:45;;;;;;;21.02;16.60;;;;;;;21.99;100.00;102021.47;4903938;30;20038;-69
2021/09/05 10:59:24;;;;;;;22.70;18.40;;;;;;;22.02;100.00;102024.63;4899517;30;20103;-68
2021/09/05 11:01:57;;;;;;;24.52;17.77;;;;;;;22.18;99.30;102018.38;4901483;30;20032;-70
2021/09/05 11:04:44;;;;;;;22.25;16.63;;;;;;;22.38;100.00;102015.22;4901924;30;20120;-70
2021/09/05 11:07:33;;;;;;;19.63;17.52;;;;;;;22.44;100.00;102022.53;4894392;30;20030;-69
2021/09/05 11:10:04;;;;;;;22.45;17.92;;;;;;;22.44;99.47;102020.69;4897262;30;20040;-69
2021/09/05 11:12:40;;;;;;;21.73;17.97;;;;;;;22.49;97.16;102022.81;4903027;30;20025;-70
2021/09/05 11:15:14;;;;;;;19.45;16.90;;;;;;;22.69;99.53;102017.78;4898645;30;20052;-71
2021/09/05 11:17:52;;;;;;;22.08;18.08;;;;;;;22.72;100.00;102014.75;4903687;30;20053;-69
2021/09/05 11:20:24;;;;;;;23.35;18.77;;;;;;;22.83;100.00;102025.00;4907733;30;20025;-69
2021/09/05 11:22:56;;;;;;;21.27;18.40;;;;;;;22.93;98.02;102022.09;4900464;30;20486;-69
2021/09/05 11:25:29;;;;;;;;;;;;;;;23.31;99.99;102015.63;4901715;30;20452;-70